Time;durP1;ratioP1;P1;durP2;ratioP2;P2;SDS_P1;SDS_P2;PMS_P1;PMS_P2;Temp;Humidity;BMP_temperature;BMP_pressure;BME280_temperature;BME280_humidity;BME280_pressure;Samples;Min_cycle;Max_cycle;Signal;HPM_P1;HPM_P2
2022/11/18 00:01:13;;;;;;;30.80;21.42;;;7.70;99.90;;;;;;5073410;28;20182;-76
2022/11/18 00:03:40;;;;;;;28.17;21.30;;;7.70;99.90;;;;;;5064335;28;20321;-76
2022/11/18 00:06:09;;;;;;;29.00;21.58;;;7.80;99.90;;;;;;5083334;28;20188;-76
2022/11/18 00:08:35;;;;;;;27.13;21.42;;;7.70;99.90;;;;;;5064179;28;20265;-75
2022/11/18 00:14:19;;;;;;;27.67;20.77;;;7.70;99.90;;;;;;5058978;28;20167;-76
2022/11/18 00:16:46;;;;;;;30.02;21.50;;;7.70;99.90;;;;;;5065161;28;20186;-76
2022/11/18 00:19:12;;;;;;;27.58;20.35;;;7.70;99.90;;;;;;5072088;28;20221;-76
2022/11/18 00:21:38;;;;;;;24.80;18.50;;;7.70;99.90;;;;;;5071795;28;20171;-76
2022/11/18 00:24:04;;;;;;;28.17;21.05;;;7.70;99.90;;;;;;5068496;28;20179;-76
2022/11/18 00:26:30;;;;;;;28.50;21.50;;;7.70;99.90;;;;;;5059233;28;20186;-76
2022/11/18 00:28:55;;;;;;;26.85;20.30;;;7.70;99.90;;;;;;5068915;28;20677;-82
2022/11/18 00:31:21;;;;;;;29.40;21.02;;;7.70;99.90;;;;;;5072096;28;20179;-76
2022/11/18 00:33:47;;;;;;;27.15;19.73;;;7.70;99.90;;;;;;5071594;28;20653;-76
2022/11/18 00:36:12;;;;;;;27.25;21.42;;;7.70;99.90;;;;;;5069855;28;20664;-76
2022/11/18 00:38:39;;;;;;;27.83;21.20;;;7.70;99.90;;;;;;5071399;28;20344;-76
2022/11/18 00:41:10;;;;;;;27.75;19.80;;;7.70;99.90;;;;;;5069973;28;20178;-76
2022/11/18 00:43:37;;;;;;;23.85;18.63;;;7.70;99.90;;;;;;5070894;28;20259;-77
2022/11/18 00:46:03;;;;;;;28.05;21.10;;;7.70;99.90;;;;;;5065905;28;20249;-76
2022/11/18 00:48:29;;;;;;;29.65;20.73;;;7.70;99.90;;;;;;5071332;28;20187;-77
2022/11/18 00:50:57;;;;;;;29.73;20.95;;;7.70;99.90;;;;;;5070430;28;20685;-77
2022/11/18 00:53:25;;;;;;;30.80;19.52;;;7.70;99.90;;;;;;5062116;28;20179;-76
2022/11/18 00:55:51;;;;;;;30.13;21.08;;;7.70;99.90;;;;;;5063993;28;20190;-76
2022/11/18 00:58:17;;;;;;;27.98;20.67;;;7.70;99.90;;;;;;5071490;28;20201;-79
2022/11/18 01:00:47;;;;;;;30.50;21.77;;;7.60;99.90;;;;;;5072628;28;20198;-77
2022/11/18 01:03:13;;;;;;;30.05;20.60;;;7.60;99.90;;;;;;5060633;28;20187;-76
2022/11/18 01:05:40;;;;;;;30.17;20.33;;;7.60;99.90;;;;;;5061635;28;20233;-78
2022/11/18 01:08:07;;;;;;;28.60;20.55;;;7.60;99.90;;;;;;5064582;28;20477;-77
2022/11/18 01:10:34;;;;;;;30.25;22.25;;;7.60;99.90;;;;;;5076389;28;20642;-77
2022/11/18 01:15:45;;;;;;;32.00;20.58;;;7.50;99.90;;;;;;5074715;28;20171;-80
2022/11/18 01:18:11;;;;;;;30.23;21.55;;;7.60;99.90;;;;;;5070542;28;20210;-77
2022/11/18 01:20:37;;;;;;;30.08;20.73;;;7.60;99.90;;;;;;5076104;28;20181;-76
2022/11/18 01:23:03;;;;;;;31.85;21.40;;;7.60;99.90;;;;;;5075001;28;20183;-76
2022/11/18 01:25:29;;;;;;;33.65;23.38;;;7.60;99.90;;;;;;5076469;28;20179;-76
2022/11/18 01:27:55;;;;;;;31.15;22.17;;;7.60;99.90;;;;;;5065827;28;20181;-76
2022/11/18 01:30:22;;;;;;;31.13;21.70;;;7.60;99.90;;;;;;5068317;28;20175;-77
2022/11/18 01:32:48;;;;;;;34.85;21.45;;;7.50;99.90;;;;;;5061049;28;20182;-76
2022/11/18 01:35:14;;;;;;;31.20;21.10;;;7.50;99.90;;;;;;5076011;28;20277;-76
2022/11/18 01:37:39;;;;;;;35.53;21.63;;;7.50;99.90;;;;;;5072031;28;20189;-76
2022/11/18 01:40:07;;;;;;;31.50;21.63;;;7.50;99.90;;;;;;5072817;28;20574;-77
2022/11/18 01:42:33;;;;;;;31.77;20.65;;;7.50;99.90;;;;;;5071785;28;20287;-76
2022/11/18 01:45:18;;;;;;;30.85;22.08;;;7.50;99.90;;;;;;5055280;28;20266;-76
2022/11/18 01:47:52;;;;;;;35.05;21.77;;;7.40;99.90;;;;;;5061828;28;20513;-76
2022/11/18 01:50:19;;;;;;;35.70;22.67;;;7.40;99.90;;;;;;5090468;28;20206;-77
2022/11/18 01:52:46;;;;;;;34.40;19.75;;;7.40;99.90;;;;;;5074338;28;20190;-76
2022/11/18 01:55:18;;;;;;;35.60;22.50;;;7.50;99.90;;;;;;5073333;28;20555;-76
2022/11/18 01:57:47;;;;;;;33.78;21.10;;;7.50;99.90;;;;;;5074352;28;20217;-77
2022/11/18 02:00:13;;;;;;;31.95;21.33;;;7.40;99.90;;;;;;5074741;28;20225;-78
2022/11/18 02:02:39;;;;;;;35.03;20.08;;;7.40;99.90;;;;;;5072134;28;20670;-77
2022/11/18 02:05:09;;;;;;;33.30;21.42;;;7.40;99.90;;;;;;5094628;28;20213;-77
2022/11/18 02:07:41;;;;;;;37.55;22.40;;;7.40;99.90;;;;;;5080294;28;20270;-77
2022/11/18 02:10:08;;;;;;;31.35;21.40;;;7.40;99.90;;;;;;5066040;28;20770;-77
2022/11/18 02:12:35;;;;;;;35.05;21.95;;;7.40;99.90;;;;;;5073458;28;20179;-77
2022/11/18 02:15:02;;;;;;;32.97;20.30;;;7.40;99.90;;;;;;5070904;28;20195;-77
2022/11/18 02:17:43;;;;;;;32.50;20.58;;;7.30;99.90;;;;;;5072547;28;20197;-77
2022/11/18 02:20:17;;;;;;;33.92;20.63;;;7.30;99.90;;;;;;5068818;28;20552;-76
2022/11/18 02:23:51;;;;;;;32.30;20.65;;;7.30;99.90;;;;;;5070418;28;20178;-77
2022/11/18 02:26:44;;;;;;;34.85;19.80;;;7.30;99.90;;;;;;4944405;28;20197;-77
2022/11/18 02:29:23;;;;;;;33.58;20.35;;;7.30;99.90;;;;;;4990821;28;20682;-78
2022/11/18 02:32:03;;;;;;;34.63;21.50;;;7.30;99.90;;;;;;5043020;28;20637;-75
2022/11/18 02:34:59;;;;;;;34.80;20.17;;;7.30;99.90;;;;;;5089903;28;20182;-75
2022/11/18 02:37:39;;;;;;;37.65;20.80;;;7.30;99.90;;;;;;5070280;28;20289;-76
2022/11/18 02:40:14;;;;;;;38.90;22.15;;;7.30;99.90;;;;;;5073291;28;20198;-76
2022/11/18 02:42:43;;;;;;;37.00;20.60;;;7.20;99.90;;;;;;5083736;28;22153;-76
2022/11/18 02:45:14;;;;;;;37.97;21.25;;;7.30;99.90;;;;;;5073792;28;20182;-76
2022/11/18 02:47:44;;;;;;;35.95;22.02;;;7.30;99.90;;;;;;5073654;28;20245;-75
2022/11/18 02:50:15;;;;;;;34.25;21.45;;;7.20;99.90;;;;;;5072294;28;20248;-76
2022/11/18 02:52:44;;;;;;;32.75;18.58;;;7.30;99.90;;;;;;5057803;28;20638;-75
2022/11/18 02:55:12;;;;;;;36.90;20.13;;;7.30;99.90;;;;;;5069584;28;20194;-76
2022/11/18 02:57:40;;;;;;;34.97;21.25;;;7.30;99.90;;;;;;5070133;28;20664;-76
2022/11/18 03:00:06;;;;;;;30.75;19.45;;;7.30;99.90;;;;;;5073375;28;20285;-77
2022/11/18 03:02:47;;;;;;;31.35;19.73;;;7.20;99.90;;;;;;5056484;28;20179;-76
2022/11/18 03:05:32;;;;;;;33.35;19.70;;;7.20;99.90;;;;;;5076916;28;20181;-77
2022/11/18 03:08:05;;;;;;;34.72;19.85;;;7.20;99.90;;;;;;5066945;28;20585;-76
2022/11/18 03:10:38;;;;;;;33.22;19.42;;;7.10;99.90;;;;;;5074618;28;20177;-75
2022/11/18 03:13:15;;;;;;;33.22;19.08;;;7.20;99.90;;;;;;5062655;28;20274;-76
2022/11/18 03:15:49;;;;;;;32.88;20.08;;;7.20;99.90;;;;;;5064547;28;20203;-76
2022/11/18 03:18:27;;;;;;;32.70;19.63;;;7.20;99.90;;;;;;5064157;28;20206;-76
2022/11/18 03:21:11;;;;;;;35.22;21.17;;;7.20;99.90;;;;;;5074215;28;20170;-76
2022/11/18 03:23:40;;;;;;;30.63;19.80;;;7.20;99.90;;;;;;5067867;28;20181;-76
2022/11/18 03:26:19;;;;;;;32.88;19.23;;;7.10;99.90;;;;;;5073978;28;20171;-76
2022/11/18 03:29:09;;;;;;;33.95;19.60;;;7.10;99.90;;;;;;5070994;28;20642;-76
2022/11/18 03:31:42;;;;;;;30.75;18.77;;;7.10;99.90;;;;;;5071654;28;20261;-76
2022/11/18 03:34:24;;;;;;;29.88;18.27;;;7.10;99.90;;;;;;5070632;28;20195;-76
2022/11/18 03:36:55;;;;;;;29.40;18.20;;;7.10;99.90;;;;;;5071063;28;20194;-76
2022/11/18 03:39:23;;;;;;;31.63;19.10;;;7.10;99.90;;;;;;5072077;28;20194;-76
2022/11/18 03:41:54;;;;;;;30.23;19.08;;;7.10;99.90;;;;;;5072363;28;20298;-76
2022/11/18 03:44:24;;;;;;;30.25;18.98;;;7.10;99.90;;;;;;5056982;28;20524;-81
2022/11/18 03:46:59;;;;;;;29.73;18.23;;;7.10;99.90;;;;;;5069401;28;20531;-76
2022/11/18 03:49:55;;;;;;;31.23;18.83;;;7.10;99.90;;;;;;5073699;28;20224;-75
2022/11/18 03:52:30;;;;;;;25.45;16.48;;;7.10;99.90;;;;;;5072303;28;20210;-76
2022/11/18 03:55:00;;;;;;;30.20;17.98;;;7.10;99.90;;;;;;5069794;28;20247;-75
2022/11/18 03:57:43;;;;;;;24.23;14.68;;;7.10;99.90;;;;;;5068765;28;20271;-75
2022/11/18 04:00:11;;;;;;;29.25;18.40;;;7.10;99.90;;;;;;5053661;28;20611;-76
2022/11/18 04:02:38;;;;;;;25.42;16.65;;;7.10;99.90;;;;;;5058121;28;20201;-75
2022/11/18 04:05:07;;;;;;;38.53;18.60;;;7.00;99.90;;;;;;5070207;28;20186;-78
2022/11/18 04:07:36;;;;;;;29.65;18.48;;;7.00;99.90;;;;;;5063799;28;20194;-75
2022/11/18 04:10:13;;;;;;;27.05;18.10;;;7.00;99.90;;;;;;5070099;28;20187;-76
2022/11/18 04:12:44;;;;;;;33.50;19.30;;;7.00;99.90;;;;;;5058609;28;20182;-75
2022/11/18 04:15:11;;;;;;;33.97;18.42;;;7.00;99.90;;;;;;5072591;28;20174;-76
2022/11/18 04:17:40;;;;;;;26.65;15.82;;;7.00;99.90;;;;;;5067788;28;20183;-76
2022/11/18 04:20:06;;;;;;;29.88;18.98;;;7.00;99.90;;;;;;5072954;28;20210;-75
2022/11/18 04:22:32;;;;;;;28.00;18.70;;;7.00;99.90;;;;;;5068965;28;20232;-75
2022/11/18 04:24:57;;;;;;;28.10;19.20;;;7.00;99.90;;;;;;5086216;28;20185;-76
2022/11/18 04:27:23;;;;;;;28.92;18.27;;;7.00;99.90;;;;;;5069081;28;20308;-75
2022/11/18 04:29:49;;;;;;;27.27;17.38;;;7.00;99.90;;;;;;5070252;28;20198;-76
2022/11/18 04:32:14;;;;;;;30.20;19.40;;;7.00;99.90;;;;;;5071443;28;20191;-75
2022/11/18 04:34:40;;;;;;;29.00;19.13;;;7.00;99.90;;;;;;5071122;28;20197;-76
2022/11/18 04:37:06;;;;;;;26.83;18.27;;;7.10;99.90;;;;;;5071460;28;20171;-76
2022/11/18 04:39:31;;;;;;;29.58;19.48;;;7.00;99.90;;;;;;5069272;28;20693;-77
2022/11/18 04:41:57;;;;;;;29.50;18.50;;;6.90;99.90;;;;;;5069987;28;20703;-76
2022/11/18 04:44:27;;;;;;;27.63;17.10;;;6.90;99.90;;;;;;5069886;28;20601;-83
2022/11/18 04:46:54;;;;;;;29.55;19.98;;;6.90;99.90;;;;;;5069807;28;20170;-81
2022/11/18 04:49:21;;;;;;;27.20;17.52;;;6.90;99.90;;;;;;5069230;28;20210;-81
2022/11/18 04:51:47;;;;;;;31.48;18.38;;;6.90;99.90;;;;;;5086689;28;20668;-75
2022/11/18 04:54:14;;;;;;;30.35;18.23;;;6.90;99.90;;;;;;5071188;28;20210;-76
2022/11/18 04:56:40;;;;;;;33.33;19.52;;;6.90;99.90;;;;;;5088423;28;20193;-75
2022/11/18 04:59:07;;;;;;;27.10;18.77;;;6.90;99.90;;;;;;5065443;28;20222;-75
2022/11/18 05:01:33;;;;;;;30.35;17.00;;;6.90;99.90;;;;;;5065867;28;20622;-75
2022/11/18 05:04:00;;;;;;;28.45;17.70;;;6.90;99.90;;;;;;5086573;28;20618;-76
2022/11/18 05:06:27;;;;;;;25.77;17.23;;;6.90;99.90;;;;;;5077235;28;20707;-75
2022/11/18 05:08:53;;;;;;;27.67;16.42;;;6.90;99.90;;;;;;5071483;28;20192;-77
2022/11/18 05:14:03;;;;;;;25.15;15.65;;;6.90;99.90;;;;;;5070186;28;20228;-76
2022/11/18 05:16:29;;;;;;;27.17;16.27;;;6.90;99.90;;;;;;5068497;28;20637;-78
2022/11/18 05:18:54;;;;;;;22.00;13.57;;;6.90;99.90;;;;;;5085649;28;20210;-76
2022/11/18 05:21:20;;;;;;;25.88;16.58;;;6.80;99.90;;;;;;5071134;28;20272;-75
2022/11/18 05:23:46;;;;;;;30.27;17.88;;;6.80;99.90;;;;;;5069959;28;20266;-76
2022/11/18 05:26:11;;;;;;;30.77;17.55;;;6.80;99.90;;;;;;5063604;28;20201;-76
2022/11/18 05:28:37;;;;;;;26.80;17.55;;;6.90;99.90;;;;;;5069979;28;20182;-75
2022/11/18 05:31:13;;;;;;;29.80;16.42;;;6.80;99.90;;;;;;5068695;28;20189;-81
2022/11/18 05:33:39;;;;;;;27.83;14.55;;;6.80;99.90;;;;;;5071088;28;20183;-75
2022/11/18 05:36:07;;;;;;;25.85;15.80;;;6.80;99.90;;;;;;5070801;28;20187;-76
2022/11/18 05:38:33;;;;;;;29.25;16.77;;;6.80;99.90;;;;;;5068892;28;20263;-75
2022/11/18 05:41:00;;;;;;;32.55;17.25;;;6.80;99.90;;;;;;5072125;28;20178;-76
2022/11/18 05:43:25;;;;;;;31.17;16.65;;;6.80;99.90;;;;;;5067754;28;20222;-76
2022/11/18 05:45:51;;;;;;;29.65;16.88;;;6.80;99.90;;;;;;5083213;28;20666;-76
2022/11/18 05:48:17;;;;;;;31.55;17.35;;;6.80;99.90;;;;;;5070783;28;20194;-76
2022/11/18 05:50:46;;;;;;;29.00;16.77;;;6.80;99.90;;;;;;5070421;28;20178;-76
2022/11/18 05:53:12;;;;;;;29.40;15.85;;;6.80;99.90;;;;;;5070604;28;20193;-79
2022/11/18 05:56:19;;;;;;;29.02;16.33;;;6.80;99.90;;;;;;5073558;28;20227;-76
2022/11/18 05:58:45;;;;;;;31.30;17.10;;;6.80;99.90;;;;;;5073384;28;20210;-75
2022/11/18 06:01:14;;;;;;;32.97;15.77;;;6.80;99.90;;;;;;5068553;28;20707;-75
2022/11/18 06:03:40;;;;;;;29.27;17.10;;;6.80;99.90;;;;;;5073995;28;20187;-75
2022/11/18 06:06:08;;;;;;;26.58;14.70;;;6.80;99.90;;;;;;5087828;28;20189;-76
2022/11/18 06:08:47;;;;;;;30.77;16.65;;;6.80;99.90;;;;;;5074416;28;20189;-75
2022/11/18 06:11:16;;;;;;;29.02;15.75;;;6.80;99.90;;;;;;5071183;28;20184;-76
2022/11/18 06:14:05;;;;;;;31.00;16.63;;;6.80;99.90;;;;;;5060617;28;20244;-77
2022/11/18 06:16:33;;;;;;;31.85;16.75;;;6.70;99.90;;;;;;5062638;28;20171;-76
2022/11/18 06:19:01;;;;;;;27.20;15.23;;;6.80;99.90;;;;;;5070314;28;20252;-76
2022/11/18 06:21:27;;;;;;;29.00;16.88;;;6.70;99.90;;;;;;5075487;28;20193;-78
2022/11/18 06:23:54;;;;;;;34.70;17.38;;;6.70;99.90;;;;;;5072469;28;20178;-75
2022/11/18 06:26:19;;;;;;;29.17;18.25;;;6.70;99.90;;;;;;5075177;28;20189;-76
2022/11/18 06:28:47;;;;;;;34.53;18.25;;;6.70;99.90;;;;;;5070821;28;20191;-78
2022/11/18 06:31:13;;;;;;;31.88;18.52;;;6.70;99.90;;;;;;5076859;28;20170;-76
2022/11/18 06:33:38;;;;;;;34.72;17.73;;;6.70;99.90;;;;;;5069249;28;20204;-76
2022/11/18 06:36:04;;;;;;;34.85;18.10;;;6.70;99.90;;;;;;5074098;28;20183;-77
2022/11/18 06:38:30;;;;;;;34.75;17.33;;;6.60;99.90;;;;;;5072319;28;20756;-75
2022/11/18 06:41:00;;;;;;;28.85;15.13;;;6.60;99.90;;;;;;5071978;28;20273;-75
2022/11/18 06:43:38;;;;;;;36.53;17.90;;;6.70;99.90;;;;;;5073658;28;20230;-80
2022/11/18 06:48:51;;;;;;;35.67;15.38;;;6.60;99.90;;;;;;5072453;28;20182;-76
2022/11/18 06:51:17;;;;;;;35.83;18.23;;;6.60;99.90;;;;;;5073793;28;20191;-78
2022/11/18 06:53:42;;;;;;;35.30;18.48;;;6.60;99.90;;;;;;5073854;28;20357;-76
2022/11/18 06:56:13;;;;;;;40.50;18.20;;;6.60;99.90;;;;;;5065741;28;20251;-76
2022/11/18 06:58:39;;;;;;;33.80;16.63;;;6.60;99.90;;;;;;5066310;28;20210;-76
2022/11/18 07:01:20;;;;;;;35.65;18.13;;;6.60;99.90;;;;;;5073362;28;20179;-77
2022/11/18 07:03:47;;;;;;;35.00;17.95;;;6.60;99.90;;;;;;5071982;28;20214;-77
2022/11/18 07:06:15;;;;;;;36.88;18.00;;;6.60;99.90;;;;;;5079218;28;20198;-77
2022/11/18 07:08:42;;;;;;;35.72;18.15;;;6.60;99.90;;;;;;5066578;28;20316;-80
2022/11/18 07:11:10;;;;;;;27.30;14.65;;;6.60;99.90;;;;;;5059662;28;20182;-80
2022/11/18 07:13:36;;;;;;;41.55;19.67;;;6.60;99.90;;;;;;5059948;28;20199;-77
2022/11/18 07:16:04;;;;;;;38.72;19.58;;;6.60;99.90;;;;;;5067350;28;20193;-76
2022/11/18 07:18:32;;;;;;;40.95;21.00;;;6.60;99.90;;;;;;5068368;28;20341;-77
2022/11/18 07:21:01;;;;;;;45.15;22.02;;;6.60;99.90;;;;;;5059098;28;20186;-78
2022/11/18 07:23:29;;;;;;;38.85;21.15;;;6.60;99.90;;;;;;5069883;28;20654;-76
2022/11/18 07:25:55;;;;;;;45.88;23.00;;;6.60;99.90;;;;;;5072860;28;20221;-75
2022/11/18 07:28:21;;;;;;;39.92;20.15;;;6.60;99.90;;;;;;5064600;28;20709;-76
2022/11/18 07:30:46;;;;;;;42.47;22.27;;;6.60;99.90;;;;;;5059695;28;20638;-76
2022/11/18 07:33:12;;;;;;;44.03;22.80;;;6.50;99.90;;;;;;5087702;28;20194;-75
2022/11/18 07:35:38;;;;;;;43.08;21.60;;;6.50;99.90;;;;;;5072671;28;20175;-75
2022/11/18 07:38:03;;;;;;;49.10;21.73;;;6.50;99.90;;;;;;5069391;28;20277;-75
2022/11/18 07:40:29;;;;;;;44.15;22.80;;;6.50;99.90;;;;;;5088512;28;20203;-75
2022/11/18 07:42:55;;;;;;;42.50;21.35;;;6.50;99.90;;;;;;5071622;28;21035;-75
2022/11/18 07:45:22;;;;;;;35.55;19.98;;;6.50;99.90;;;;;;5055797;28;20332;-77
2022/11/18 07:47:48;;;;;;;39.90;21.17;;;6.50;99.90;;;;;;5061059;28;20182;-79
2022/11/18 07:50:15;;;;;;;45.30;22.63;;;6.50;99.90;;;;;;5058981;28;20541;-76
2022/11/18 07:52:41;;;;;;;36.63;20.15;;;6.40;99.90;;;;;;5070485;28;20190;-75
2022/11/18 07:55:07;;;;;;;42.42;21.58;;;6.40;99.90;;;;;;5072442;28;20652;-83
2022/11/18 07:57:33;;;;;;;42.75;20.73;;;6.40;99.90;;;;;;5077270;28;20206;-75
2022/11/18 07:59:58;;;;;;;36.42;19.23;;;6.40;99.90;;;;;;5072392;28;20235;-76
2022/11/18 08:02:24;;;;;;;44.13;20.73;;;6.40;99.90;;;;;;5070767;28;20183;-75
2022/11/18 08:04:50;;;;;;;41.33;20.90;;;6.40;99.90;;;;;;5076212;28;20671;-78
2022/11/18 08:07:15;;;;;;;39.30;21.50;;;6.40;99.90;;;;;;5071413;28;20206;-80
2022/11/18 08:09:41;;;;;;;41.30;22.20;;;6.50;99.90;;;;;;5065848;28;20186;-75
2022/11/18 08:12:07;;;;;;;38.53;22.65;;;6.50;99.90;;;;;;5069965;28;20228;-78
2022/11/18 08:14:33;;;;;;;40.80;21.42;;;6.50;99.90;;;;;;5071990;28;20175;-75
2022/11/18 08:16:58;;;;;;;36.78;19.33;;;6.50;99.90;;;;;;5067888;28;20188;-78
2022/11/18 08:19:24;;;;;;;37.15;19.55;;;6.50;99.90;;;;;;5057265;28;20215;-79
2022/11/18 08:21:50;;;;;;;41.85;21.73;;;6.60;99.90;;;;;;5070739;28;20596;-75
2022/11/18 08:24:15;;;;;;;37.13;21.02;;;6.50;99.90;;;;;;5086618;28;20675;-76
2022/11/18 08:26:41;;;;;;;39.10;20.17;;;6.60;99.90;;;;;;5059611;28;20198;-76
2022/11/18 08:29:07;;;;;;;34.83;20.00;;;6.50;99.90;;;;;;5068107;28;20671;-76
2022/11/18 08:31:32;;;;;;;34.33;19.40;;;6.50;99.90;;;;;;5068309;28;20198;-75
2022/11/18 08:34:04;;;;;;;39.20;21.80;;;6.50;99.90;;;;;;5059347;28;20184;-75
2022/11/18 08:36:35;;;;;;;42.92;21.23;;;6.50;99.90;;;;;;5057125;28;20171;-76
2022/11/18 08:39:04;;;;;;;36.92;22.33;;;6.50;99.90;;;;;;5063870;28;20267;-76
2022/11/18 08:41:37;;;;;;;42.88;22.40;;;6.50;99.90;;;;;;5071933;28;20175;-75
2022/11/18 08:44:04;;;;;;;33.03;18.95;;;6.40;99.90;;;;;;5071703;28;20221;-76
2022/11/18 08:46:30;;;;;;;38.45;21.88;;;6.40;99.90;;;;;;5065193;28;20213;-75
2022/11/18 08:48:57;;;;;;;40.42;22.38;;;6.40;99.90;;;;;;5057701;28;20197;-75
2022/11/18 08:51:23;;;;;;;41.33;22.80;;;6.40;99.90;;;;;;5060680;28;20182;-75
2022/11/18 08:53:49;;;;;;;40.80;22.27;;;6.40;99.90;;;;;;5070317;28;20214;-76
2022/11/18 08:56:17;;;;;;;38.92;21.63;;;6.50;99.90;;;;;;5071598;28;20198;-77
2022/11/18 08:58:43;;;;;;;40.28;22.00;;;6.40;99.90;;;;;;5069445;28;20619;-76
2022/11/18 09:01:10;;;;;;;35.72;21.20;;;6.40;99.90;;;;;;5072481;28;20186;-76
2022/11/18 09:03:35;;;;;;;36.72;20.50;;;6.50;99.90;;;;;;5062191;28;20232;-80
2022/11/18 09:06:10;;;;;;;36.70;21.27;;;6.50;99.90;;;;;;5080291;28;20178;-75
2022/11/18 09:08:36;;;;;;;34.67;20.73;;;6.50;99.90;;;;;;5071519;28;20186;-75
2022/11/18 09:11:10;;;;;;;34.33;20.02;;;6.40;99.90;;;;;;5071973;28;20209;-75
2022/11/18 09:13:36;;;;;;;41.75;22.48;;;6.40;99.90;;;;;;5063982;28;20294;-81
2022/11/18 09:16:02;;;;;;;41.03;22.02;;;6.40;99.90;;;;;;5057070;28;20185;-75
2022/11/18 09:18:28;;;;;;;37.78;22.63;;;6.50;99.90;;;;;;5064254;28;20202;-75
2022/11/18 09:20:59;;;;;;;42.65;22.27;;;6.50;99.90;;;;;;5072454;28;20653;-76
2022/11/18 09:23:25;;;;;;;38.22;20.23;;;6.40;99.90;;;;;;5069856;28;20214;-75
2022/11/18 09:26:02;;;;;;;32.20;18.95;;;6.40;99.90;;;;;;5057353;28;20620;-77
2022/11/18 09:28:29;;;;;;;37.00;20.23;;;6.40;99.90;;;;;;5070053;28;20609;-76
2022/11/18 09:30:55;;;;;;;37.05;20.20;;;6.40;99.90;;;;;;5075040;28;20360;-75
2022/11/18 09:33:21;;;;;;;33.90;19.70;;;6.40;99.90;;;;;;5074336;28;20670;-76
2022/11/18 09:35:47;;;;;;;38.63;19.60;;;6.40;99.90;;;;;;5064467;28;20265;-76
2022/11/18 09:38:13;;;;;;;36.60;20.30;;;6.40;99.90;;;;;;5069743;28;20259;-83
2022/11/18 09:41:05;;;;;;;41.65;19.50;;;6.40;99.90;;;;;;5092346;28;20203;-78
2022/11/18 09:44:12;;;;;;;31.75;17.73;;;6.40;99.90;;;;;;5062623;28;20218;-78
2022/11/18 09:47:10;;;;;;;45.20;20.75;;;6.40;99.90;;;;;;5083560;28;20633;-75
2022/11/18 09:49:41;;;;;;;34.17;18.65;;;6.40;99.90;;;;;;5040285;28;20201;-78
2022/11/18 09:52:35;;;;;;;31.73;17.58;;;6.40;99.90;;;;;;5071769;28;20637;-76
2022/11/18 09:55:00;;;;;;;37.50;18.10;;;6.30;99.90;;;;;;5061715;28;20202;-78
2022/11/18 09:57:43;;;;;;;30.58;17.20;;;6.30;99.90;;;;;;5061742;28;20178;-79
2022/11/18 10:00:29;;;;;;;32.22;16.88;;;6.30;99.90;;;;;;5070836;28;20209;-76
2022/11/18 10:02:57;;;;;;;28.95;16.50;;;6.30;99.90;;;;;;5062949;28;20206;-78
2022/11/18 10:05:29;;;;;;;32.63;17.83;;;6.30;99.90;;;;;;5078414;28;20183;-80
2022/11/18 10:08:11;;;;;;;30.80;16.83;;;6.20;99.90;;;;;;5061941;28;20197;-80
2022/11/18 10:11:06;;;;;;;31.40;18.75;;;6.20;99.90;;;;;;5067116;28;20178;-75
2022/11/18 10:13:47;;;;;;;28.63;15.65;;;6.20;99.90;;;;;;5060976;28;20184;-76
2022/11/18 10:16:16;;;;;;;33.75;19.08;;;6.20;99.90;;;;;;5055698;28;20178;-78
2022/11/18 10:19:06;;;;;;;33.25;18.35;;;6.20;99.90;;;;;;5063836;28;20692;-74
2022/11/18 10:22:07;;;;;;;30.42;17.75;;;6.10;99.90;;;;;;5017538;28;20253;-75
2022/11/18 10:24:38;;;;;;;31.23;17.00;;;6.20;99.90;;;;;;5056871;28;20187;-73
2022/11/18 10:27:10;;;;;;;34.38;17.67;;;6.20;99.90;;;;;;5071802;28;20167;-73
2022/11/18 10:29:35;;;;;;;29.33;16.17;;;6.20;99.90;;;;;;5060149;28;20288;-73
2022/11/18 10:32:09;;;;;;;32.33;16.48;;;6.20;99.90;;;;;;5072704;28;20583;-75
2022/11/18 10:34:49;;;;;;;34.13;16.95;;;6.20;99.90;;;;;;5073174;28;20174;-74
2022/11/18 10:37:23;;;;;;;33.13;17.05;;;6.10;99.90;;;;;;5073042;28;20228;-73
2022/11/18 10:39:53;;;;;;;31.27;18.65;;;6.10;99.90;;;;;;5069222;28;20222;-72
2022/11/18 10:42:46;;;;;;;31.48;16.00;;;6.10;99.90;;;;;;5070680;28;20191;-73
2022/11/18 10:45:23;;;;;;;26.65;14.45;;;6.00;99.90;;;;;;5067403;28;20721;-73
2022/11/18 10:48:15;;;;;;;34.15;18.80;;;5.90;99.90;;;;;;5067891;28;20189;-75
2022/11/18 10:50:43;;;;;;;33.05;18.40;;;6.00;99.90;;;;;;5056338;28;20206;-74
2022/11/18 10:53:30;;;;;;;32.40;17.80;;;6.00;99.90;;;;;;5064071;28;20179;-80
2022/11/18 10:56:00;;;;;;;35.08;19.20;;;5.90;99.90;;;;;;5053485;28;20711;-76
2022/11/18 10:58:29;;;;;;;38.92;20.30;;;5.90;99.90;;;;;;5065911;28;20178;-74
2022/11/18 11:01:12;;;;;;;37.22;20.58;;;5.90;99.90;;;;;;5060615;28;20171;-74
2022/11/18 11:03:41;;;;;;;41.55;21.38;;;5.90;99.90;;;;;;5065175;28;20178;-75
2022/11/18 11:06:12;;;;;;;41.03;20.95;;;5.80;99.90;;;;;;5061522;28;20202;-74
2022/11/18 11:08:48;;;;;;;37.67;17.80;;;5.80;99.90;;;;;;5059933;28;20218;-74
2022/11/18 11:11:25;;;;;;;42.15;20.05;;;5.80;99.90;;;;;;5072760;28;20174;-74
2022/11/18 11:14:05;;;;;;;34.50;17.08;;;5.70;99.90;;;;;;5072364;28;20178;-75
2022/11/18 11:16:36;;;;;;;39.70;18.42;;;5.70;99.90;;;;;;5060783;28;20205;-74
2022/11/18 11:19:04;;;;;;;41.03;20.48;;;5.70;99.90;;;;;;5072023;28;20210;-74
2022/11/18 11:21:30;;;;;;;38.60;19.67;;;5.60;99.90;;;;;;5072968;28;20210;-74
2022/11/18 11:23:56;;;;;;;46.72;20.42;;;5.60;99.90;;;;;;5061616;28;20191;-75
2022/11/18 11:26:28;;;;;;;39.53;20.15;;;5.60;99.90;;;;;;5075794;28;20302;-74
2022/11/18 11:29:21;;;;;;;42.50;20.38;;;5.50;99.90;;;;;;5069895;28;20182;-74
2022/11/18 11:32:28;;;;;;;42.33;20.17;;;5.50;99.90;;;;;;5058458;28;20200;-74
2022/11/18 11:35:04;;;;;;;39.47;19.05;;;5.50;99.90;;;;;;5054574;28;20186;-75
2022/11/18 11:37:39;;;;;;;36.30;17.10;;;5.40;99.90;;;;;;5071136;28;20669;-74
2022/11/18 11:40:24;;;;;;;36.35;19.63;;;5.40;99.90;;;;;;5073945;28;20213;-74
2022/11/18 11:43:17;;;;;;;41.33;20.13;;;5.40;99.90;;;;;;5071502;28;20174;-74
2022/11/18 11:46:07;;;;;;;34.80;18.25;;;5.40;99.90;;;;;;5060164;28;20193;-74
2022/11/18 11:48:45;;;;;;;32.38;15.68;;;5.30;99.90;;;;;;5067103;28;20270;-78
2022/11/18 11:51:35;;;;;;;39.63;20.83;;;5.30;99.90;;;;;;5056883;28;20729;-75
2022/11/18 11:54:33;;;;;;;38.03;18.60;;;5.30;99.90;;;;;;5056963;28;20187;-74
2022/11/18 11:57:19;;;;;;;37.13;17.52;;;5.30;99.90;;;;;;5048923;28;20550;-74
2022/11/18 12:00:00;;;;;;;39.78;20.58;;;5.30;99.90;;;;;;5068989;28;20618;-74
2022/11/18 12:02:54;;;;;;;37.13;19.30;;;5.20;99.90;;;;;;5056736;28;20273;-74
2022/11/18 12:05:41;;;;;;;38.28;20.80;;;5.20;99.90;;;;;;5070712;28;20640;-76
2022/11/18 12:08:28;;;;;;;42.92;20.88;;;5.20;99.90;;;;;;5065409;28;20186;-76
2022/11/18 12:11:06;;;;;;;33.63;14.23;;;5.20;99.90;;;;;;5073130;28;20163;-73
2022/11/18 12:13:37;;;;;;;43.30;19.35;;;5.20;99.90;;;;;;5071900;28;20200;-75
2022/11/18 12:16:12;;;;;;;29.38;14.77;;;5.20;99.90;;;;;;5067178;28;20179;-75
2022/11/18 12:18:46;;;;;;;38.58;18.52;;;5.10;99.90;;;;;;5077300;28;20658;-75
2022/11/18 12:21:46;;;;;;;37.60;17.20;;;5.20;99.90;;;;;;5054886;28;20177;-74
2022/11/18 12:24:29;;;;;;;37.67;18.90;;;5.20;99.90;;;;;;5067896;28;20571;-74
2022/11/18 12:26:58;;;;;;;39.40;15.70;;;5.20;99.90;;;;;;5052942;28;20297;-76
2022/11/18 12:29:28;;;;;;;33.45;17.92;;;5.20;99.90;;;;;;5070219;28;20189;-74
2022/11/18 12:31:58;;;;;;;33.95;18.60;;;5.20;99.90;;;;;;5064783;28;20186;-79
2022/11/18 12:34:40;;;;;;;33.60;17.55;;;5.20;99.90;;;;;;5065772;28;20194;-74
2022/11/18 12:37:37;;;;;;;27.83;13.80;;;5.20;99.90;;;;;;5068248;28;20194;-75
2022/11/18 12:40:03;;;;;;;33.78;16.23;;;5.20;99.90;;;;;;5072740;28;20197;-74
2022/11/18 12:45:39;;;;;;;29.75;15.20;;;5.10;99.90;;;;;;5085811;28;20253;-75
2022/11/18 12:48:27;;;;;;;28.48;15.70;;;5.10;99.90;;;;;;5057923;28;20193;-74
2022/11/18 12:51:03;;;;;;;31.00;16.90;;;5.00;99.90;;;;;;5065750;28;20208;-74
2022/11/18 12:53:42;;;;;;;28.52;16.05;;;5.00;99.90;;;;;;5068499;28;20182;-74
2022/11/18 12:56:26;;;;;;;30.98;17.25;;;5.00;99.90;;;;;;5072645;28;20186;-72
2022/11/18 12:58:54;;;;;;;31.30;16.00;;;5.00;99.90;;;;;;5059192;28;20238;-78
2022/11/18 13:01:24;;;;;;;31.85;17.20;;;5.00;99.90;;;;;;5069341;28;20196;-73
2022/11/18 13:04:16;;;;;;;32.72;16.83;;;5.00;99.90;;;;;;5071649;28;20200;-73
2022/11/18 13:06:43;;;;;;;32.25;16.25;;;5.00;99.90;;;;;;5083140;28;20608;-74
2022/11/18 13:09:16;;;;;;;31.75;16.88;;;4.90;99.90;;;;;;5058957;28;22443;-73
2022/11/18 13:12:02;;;;;;;32.30;17.42;;;4.90;99.90;;;;;;5080936;28;20183;-73
2022/11/18 13:17:51;;;;;;;36.13;18.30;;;4.90;99.90;;;;;;5033354;28;20194;-73